TFM - Tactical Decision Aid
ID: Runway Winds: CIG/VIS Threshold:

KTPA - Tampa Intl Arpt, FL, US

Updated at: 2228 UTC 23 Apr 2019
Latest TAF at: 2101 UTC 23 Apr 2019

TAF Board

Time2153Z 23/23Z 24/00Z 24/01Z 24/02Z 24/03Z 24/04Z 24/05Z 24/06Z 24/07Z 24/08Z 24/09Z 24/10Z 24/11Z>>
Type OBS PRVL PRVL PRVL PRVL PRVL PRVL PRVL PRVL PRVL PRVL PRVL PRVL PRVL
VIS 10 >6 >6 >6 >6 >6 >6 >6 >6 >6 >6 >6 >6 >6
CIG 250 -- -- -- -- -- -- -- -- -- -- -- -- --
Cover BKN SCT SCT SCT SCT SCT SCT SCT SCT SCT SCT SCT SCT SCT
FltCat VFR VFR VFR VFR VFR VFR VFR VFR VFR VFR VFR VFR VFR VFR
WX -- -- -- -- -- -- -- -- -- -- -- -- -- --
WDir 270 290 290 290 VRB VRB VRB VRB VRB VRB VRB VRB VRB VRB
WSpd 11 10 10 10 3 3 3 3 3 3 3 3 3 3
WGst 16 -- -- -- -- -- -- -- -- -- -- -- -- --

TDA Impact Legend

  None Marginal Slight Moderate High
Visibility (sm) >5 3≤X≤5 1≤X<3 0.5≤X<1 <0.5
Ceiling (100 ft) >30 10≤X≤30 4≤X<10 2≤X<4 <2
Wind Speed (kt) <15 15≤X<25 25≤X<30 ≥30
Wind Gust (kt) <15 15≤X<25 25≤X<35 ≥35
Weather No Wx Reported VCTS -TS,-FZRA TS,FZRA +TS,+FZRA
TAF
KTPA 232101Z 2321/2424 29010KT P6SM FEW030 SCT250
  FM240200 VRB03KT P6SM SCT250
  FM241400 16006KT P6SM BKN250
  FM241800 24008KT P6SM FEW150 BKN250


METAR
KTPA 232153Z 27011G16KT 10SM FEW100 BKN250 27/14 A3005 RMK AO2 SLP176 T02670144 $
KTPA 232053Z 27011KT 10SM FEW028 SCT250 27/14 A3005 RMK AO2 SLP177 T02720144 56019 $
KTPA 231953Z 28010KT 10SM FEW030 FEW250 27/13 A3007 RMK AO2 SLP182 T02720128 $

Radar Display
Forecast Discussion